createdAt,value
2018-02-24T00:01:01.640Z,84.00
2018-02-24T00:03:29.163Z,83.30
2018-02-24T00:05:57.471Z,83.10
2018-02-24T00:08:24.991Z,83.00
2018-02-24T00:10:52.526Z,83.20
2018-02-24T00:13:20.277Z,83.40
2018-02-24T00:15:47.893Z,83.30
2018-02-24T00:18:16.176Z,83.40
2018-02-24T00:20:44.456Z,83.40
2018-02-24T00:23:11.984Z,83.40
2018-02-24T00:25:40.287Z,83.80
2018-02-24T00:28:07.823Z,83.60
2018-02-24T00:30:36.114Z,83.70
2018-02-24T00:33:05.196Z,83.90
2018-02-24T00:35:32.728Z,83.80
2018-02-24T00:38:00.334Z,83.80
2018-02-24T00:40:28.126Z,83.80
2018-02-24T00:42:55.672Z,84.00
2018-02-24T00:45:23.227Z,84.00
2018-02-24T00:47:50.759Z,84.30
2018-02-24T00:50:19.043Z,84.30
2018-02-24T00:52:47.640Z,84.70
2018-02-24T00:55:15.210Z,84.60
2018-02-24T00:57:42.713Z,84.70
2018-02-24T01:00:11.201Z,84.40
2018-02-24T01:02:38.793Z,84.10
2018-02-24T01:05:06.797Z,84.10
2018-02-24T01:07:35.161Z,84.80
2018-02-24T01:10:02.641Z,84.80
2018-02-24T01:12:30.167Z,84.30
2018-02-24T01:14:57.687Z,84.50
2018-02-24T01:17:25.192Z,85.00
2018-02-24T01:19:52.738Z,84.70
2018-02-24T01:22:20.276Z,84.60
2018-02-24T01:24:48.556Z,84.50
2018-02-24T01:27:16.859Z,85.20
2018-02-24T01:29:44.359Z,85.10
2018-02-24T01:32:11.866Z,85.30
2018-02-24T01:34:39.423Z,85.00
2018-02-24T01:37:06.927Z,85.20
2018-02-24T01:39:34.446Z,85.40
2018-02-24T01:42:01.975Z,85.40
2018-02-24T01:44:30.276Z,85.30
2018-02-24T01:46:57.865Z,85.20
2018-02-24T01:49:25.383Z,85.60
2018-02-24T01:51:53.675Z,85.60
2018-02-24T01:54:21.203Z,85.40
2018-02-24T01:56:49.526Z,85.40
2018-02-24T01:59:17.055Z,85.30
2018-02-24T02:01:44.570Z,85.40
2018-02-24T02:04:12.091Z,85.60
2018-02-24T02:06:39.611Z,85.60
2018-02-24T02:09:07.893Z,85.80
2018-02-24T02:11:36.182Z,85.70
2018-02-24T02:14:03.719Z,85.60
2018-02-24T02:16:31.250Z,85.60
2018-02-24T02:18:59.521Z,85.90
2018-02-24T02:21:27.051Z,85.90
2018-02-24T02:23:54.563Z,85.90
2018-02-24T02:26:22.074Z,86.10
2018-02-24T02:28:49.595Z,85.90
2018-02-24T02:31:17.897Z,86.00
2018-02-24T02:33:45.395Z,85.90
2018-02-24T02:36:12.921Z,86.30
2018-02-24T02:38:40.437Z,86.40
2018-02-24T02:41:08.722Z,85.80
2018-02-24T02:43:36.289Z,86.50
2018-02-24T02:46:03.824Z,85.90
2018-02-24T02:48:31.347Z,86.10
2018-02-24T02:50:58.911Z,86.30
2018-02-24T02:53:26.428Z,86.10
2018-02-24T02:55:53.947Z,86.10
2018-02-24T02:58:21.460Z,85.90
2018-02-24T03:00:48.968Z,86.10
2018-02-24T03:03:16.507Z,86.10
2018-02-24T03:05:44.038Z,85.90
2018-02-24T03:08:11.552Z,85.60
2018-02-24T03:10:39.863Z,85.60
2018-02-24T03:13:07.364Z,85.50
2018-02-24T03:15:34.912Z,85.80
2018-02-24T03:18:02.451Z,85.70
2018-02-24T03:20:30.002Z,86.20
2018-02-24T03:22:57.530Z,85.90
2018-02-24T03:25:25.806Z,85.80
2018-02-24T03:27:54.084Z,85.70
2018-02-24T03:30:22.381Z,85.90
2018-02-24T03:32:49.880Z,86.60
2018-02-24T03:35:17.383Z,85.80
2018-02-24T03:37:44.961Z,86.30
2018-02-24T03:40:12.511Z,86.10
2018-02-24T03:42:40.044Z,85.80
2018-02-24T03:45:08.387Z,85.40
2018-02-24T03:47:35.888Z,85.40
2018-02-24T03:50:04.190Z,85.20
2018-02-24T03:52:31.772Z,85.10
2018-02-24T03:54:59.274Z,85.30
2018-02-24T03:57:27.561Z,85.70
2018-02-24T03:59:55.851Z,85.40
2018-02-24T04:02:23.379Z,85.40
2018-02-24T04:04:50.879Z,85.30
2018-02-24T04:07:18.412Z,86.20
2018-02-24T04:09:46.693Z,85.40
2018-02-24T04:12:14.217Z,85.20
2018-02-24T04:14:41.757Z,85.60
2018-02-24T04:17:10.071Z,85.70
2018-02-24T04:19:38.353Z,85.10
2018-02-24T04:22:06.634Z,85.10
2018-02-24T04:24:34.129Z,85.10
2018-02-24T04:27:01.698Z,85.20
2018-02-24T04:29:29.988Z,84.80
2018-02-24T04:31:57.523Z,85.10
2018-02-24T04:34:25.048Z,85.00
2018-02-24T04:36:53.365Z,85.50
2018-02-24T04:39:20.951Z,86.20
2018-02-24T04:41:49.452Z,85.60
2018-02-24T04:44:17.765Z,85.60
2018-02-24T04:46:45.290Z,85.50
2018-02-24T04:49:13.582Z,85.80
2018-02-24T04:51:42.023Z,85.70
2018-02-24T04:54:09.613Z,85.50
2018-02-24T04:56:37.892Z,85.50
2018-02-24T04:59:05.432Z,85.50
2018-02-24T05:01:33.729Z,85.50
2018-02-24T05:04:01.236Z,85.50
2018-02-24T05:06:28.795Z,85.70
2018-02-24T05:08:56.298Z,85.70
2018-02-24T05:11:24.578Z,85.90
2018-02-24T05:13:52.864Z,85.80
2018-02-24T05:16:20.371Z,85.80
2018-02-24T05:18:47.904Z,85.70
2018-02-24T05:21:15.463Z,85.70
2018-02-24T05:23:43.000Z,85.80
2018-02-24T05:26:10.510Z,85.70
2018-02-24T05:28:38.057Z,85.90
2018-02-24T05:31:05.559Z,85.70
2018-02-24T05:33:33.883Z,85.90
2018-02-24T05:36:01.402Z,85.80
2018-02-24T05:38:28.923Z,85.80
2018-02-24T05:40:56.426Z,85.70
2018-02-24T05:43:23.980Z,85.80
2018-02-24T05:45:51.480Z,85.70
2018-02-24T05:48:18.983Z,85.50
2018-02-24T05:50:47.309Z,85.50
2018-02-24T05:53:14.836Z,85.50
2018-02-24T05:55:42.370Z,85.50
2018-02-24T05:58:11.669Z,85.40
2018-02-24T06:00:39.932Z,85.30
2018-02-24T06:03:07.460Z,85.20
2018-02-24T06:05:35.011Z,85.10
2018-02-24T06:08:02.536Z,85.20
2018-02-24T06:10:30.047Z,85.30
2018-02-24T06:12:57.580Z,85.20
2018-02-24T06:15:25.109Z,85.60
2018-02-24T06:17:52.611Z,85.30
2018-02-24T06:20:20.143Z,85.40
2018-02-24T06:22:47.655Z,85.20
2018-02-24T06:25:15.179Z,85.10
2018-02-24T06:27:42.687Z,85.10
2018-02-24T06:30:10.220Z,85.00
2018-02-24T06:32:37.751Z,85.10
2018-02-24T06:35:07.215Z,85.10
2018-02-24T06:37:35.529Z,84.30
2018-02-24T06:40:03.075Z,84.20
2018-02-24T06:42:30.592Z,83.70
2018-02-24T06:44:58.883Z,83.00
2018-02-24T06:47:27.191Z,82.60
2018-02-24T06:49:54.710Z,82.60
2018-02-24T06:52:23.000Z,82.60
2018-02-24T06:54:50.531Z,82.60
2018-02-24T06:57:18.042Z,81.90
2018-02-24T06:59:45.548Z,82.30
2018-02-24T07:02:13.840Z,73.90
2018-02-24T07:04:42.128Z,73.10
2018-02-24T07:07:09.656Z,73.00
2018-02-24T07:09:37.184Z,71.00
2018-02-24T07:12:05.478Z,66.10
2018-02-24T07:14:32.991Z,66.20
2018-02-24T07:17:00.513Z,61.20
2018-02-24T07:19:28.798Z,55.60
2018-02-24T07:21:57.070Z,53.20
2018-02-24T07:24:25.376Z,51.80
2018-02-24T07:26:52.889Z,51.80
2018-02-24T07:29:20.391Z,49.00
2018-02-24T07:31:47.910Z,48.30
2018-02-24T07:34:15.468Z,46.30
2018-02-24T07:36:42.931Z,47.70
2018-02-24T07:39:10.486Z,46.70
2018-02-24T07:41:38.012Z,47.60
2018-02-24T07:44:05.574Z,46.70
2018-02-24T07:46:33.077Z,44.50
2018-02-24T07:49:01.356Z,48.70
2018-02-24T07:51:29.651Z,52.30
2018-02-24T07:53:57.155Z,52.30
2018-02-24T07:56:24.667Z,55.60
2018-02-24T07:58:52.191Z,58.10
2018-02-24T08:01:19.683Z,58.80
2018-02-24T08:03:47.188Z,60.50
2018-02-24T08:06:14.685Z,59.10
2018-02-24T08:08:42.975Z,57.90
2018-02-24T08:11:10.491Z,57.80
2018-02-24T08:13:38.790Z,56.90
2018-02-24T08:16:07.064Z,54.50
2018-02-24T08:18:35.346Z,54.80
2018-02-24T08:21:03.674Z,55.30
2018-02-24T08:23:31.985Z,54.50
2018-02-24T08:25:59.483Z,54.50
2018-02-24T08:28:27.023Z,54.70
2018-02-24T08:30:55.472Z,55.50
2018-02-24T08:33:22.995Z,55.60
2018-02-24T08:35:50.543Z,55.00
2018-02-24T08:38:18.040Z,56.00
2018-02-24T08:40:45.580Z,55.80
2018-02-24T08:43:13.120Z,56.00
2018-02-24T08:45:40.647Z,55.60
2018-02-24T08:48:08.158Z,56.20
2018-02-24T08:50:35.707Z,56.30
2018-02-24T08:53:03.212Z,56.30
2018-02-24T08:55:31.486Z,57.30
2018-02-24T08:57:59.865Z,57.40
2018-02-24T09:00:27.286Z,57.40
2018-02-24T09:02:54.789Z,57.60
2018-02-24T09:05:23.064Z,57.10
2018-02-24T09:07:51.308Z,57.60
2018-02-24T09:10:18.860Z,57.60
2018-02-24T09:12:46.393Z,57.40
2018-02-24T09:15:14.018Z,57.60
2018-02-24T09:17:42.276Z,57.90
2018-02-24T09:20:09.780Z,57.90
2018-02-24T09:22:37.303Z,58.10
2018-02-24T09:25:04.801Z,58.40
2018-02-24T09:27:32.320Z,58.70
2018-02-24T09:29:59.841Z,57.30
2018-02-24T09:32:27.340Z,57.80
2018-02-24T09:34:54.859Z,57.90
2018-02-24T09:37:22.383Z,58.80
2018-02-24T09:39:49.922Z,57.70
2018-02-24T09:42:17.441Z,59.00
2018-02-24T09:44:44.946Z,59.70
2018-02-24T09:47:13.200Z,62.50
2018-02-24T09:49:40.706Z,62.50
2018-02-24T09:52:08.197Z,61.80
2018-02-24T09:54:35.697Z,61.20
2018-02-24T09:57:03.999Z,60.30
2018-02-24T09:59:31.505Z,60.30
2018-02-24T10:01:59.028Z,60.30
2018-02-24T10:04:26.585Z,60.70
2018-02-24T10:06:54.100Z,60.40
2018-02-24T10:09:22.407Z,60.10
2018-02-24T10:11:49.940Z,60.10
2018-02-24T10:14:18.223Z,59.80
2018-02-24T10:16:45.806Z,59.80
2018-02-24T10:19:13.313Z,60.50
2018-02-24T10:21:40.884Z,60.10
2018-02-24T10:24:08.556Z,60.50
2018-02-24T10:26:36.454Z,60.50
2018-02-24T10:29:04.247Z,61.20
2018-02-24T10:31:32.154Z,63.40
2018-02-24T10:33:59.693Z,62.90
2018-02-24T10:36:27.213Z,63.30
2018-02-24T10:38:54.789Z,63.00
2018-02-24T10:41:23.211Z,62.20
2018-02-24T10:43:50.747Z,61.90
2018-02-24T10:46:18.259Z,61.20
2018-02-24T10:48:46.531Z,59.80
2018-02-24T10:51:14.816Z,59.60
2018-02-24T10:53:43.126Z,60.00
2018-02-24T10:56:10.736Z,60.00
2018-02-24T10:58:38.257Z,61.00
2018-02-24T11:01:05.996Z,60.00
2018-02-24T11:03:33.855Z,59.70
2018-02-24T11:06:01.373Z,59.40
2018-02-24T11:08:28.867Z,59.60
2018-02-24T11:10:56.383Z,59.20
2018-02-24T11:13:23.904Z,58.20
2018-02-24T11:15:51.652Z,58.80
2018-02-24T11:18:19.204Z,59.40
2018-02-24T11:20:47.471Z,57.20
2018-02-24T11:23:15.728Z,57.30
2018-02-24T11:25:43.232Z,57.10
2018-02-24T11:28:10.725Z,56.00
2018-02-24T11:30:38.247Z,56.20
2018-02-24T11:33:05.748Z,55.50
2018-02-24T11:35:33.231Z,55.50
2018-02-24T11:38:01.501Z,56.40
2018-02-24T11:40:29.772Z,57.60
2018-02-24T11:42:58.046Z,57.30
2018-02-24T11:45:26.346Z,58.00
2018-02-24T11:47:53.951Z,58.00
2018-02-24T11:50:21.475Z,56.30
2018-02-24T11:52:49.034Z,56.80
2018-02-24T11:55:16.523Z,56.10
2018-02-24T11:57:44.132Z,56.40
2018-02-24T12:00:12.445Z,58.40
2018-02-24T12:02:40.000Z,58.80
2018-02-24T12:05:07.626Z,58.70
2018-02-24T12:07:35.254Z,59.60
2018-02-24T12:10:02.799Z,59.20
2018-02-24T12:12:30.312Z,57.80
2018-02-24T12:14:57.819Z,57.70
2018-02-24T12:17:26.083Z,59.30
2018-02-24T12:19:53.612Z,59.50
2018-02-24T12:22:21.122Z,56.50
2018-02-24T12:24:49.388Z,56.40
2018-02-24T12:27:16.918Z,56.50
2018-02-24T12:29:44.471Z,55.50
2018-02-24T12:32:12.168Z,54.90
2018-02-24T12:34:40.467Z,52.60
2018-02-24T12:37:08.000Z,52.60
2018-02-24T12:39:36.312Z,53.30
2018-02-24T12:42:04.615Z,51.60
2018-02-24T12:44:33.384Z,51.50
2018-02-24T12:47:01.751Z,52.20
2018-02-24T12:49:31.807Z,53.80
2018-02-24T12:51:59.320Z,53.80
2018-02-24T12:54:26.872Z,52.00
2018-02-24T12:59:28.349Z,51.50
2018-02-24T13:01:56.193Z,50.90
2018-02-24T13:04:23.695Z,50.00
2018-02-24T13:06:51.975Z,49.20
2018-02-24T13:11:54.462Z,49.40
2018-02-24T13:16:56.757Z,49.60
2018-02-24T13:19:24.336Z,49.20
2018-02-24T13:21:51.832Z,49.60
2018-02-24T13:24:19.360Z,49.50
2018-02-24T13:26:46.920Z,48.50
2018-02-24T13:29:14.423Z,48.10
2018-02-24T13:31:42.736Z,45.50
2018-02-24T13:34:10.242Z,45.50
2018-02-24T13:36:37.739Z,46.10
2018-02-24T13:39:05.240Z,47.10
2018-02-24T13:41:33.301Z,46.80
2018-02-24T13:44:01.104Z,47.30
2018-02-24T13:46:29.358Z,48.00
2018-02-24T13:48:56.851Z,48.00
2018-02-24T13:51:25.147Z,48.20
2018-02-24T13:53:52.631Z,48.20
2018-02-24T13:56:20.908Z,48.60
2018-02-24T13:58:48.407Z,48.60
2018-02-24T14:01:16.865Z,48.20
2018-02-24T14:03:45.166Z,48.30
2018-02-24T14:06:13.563Z,48.00
2018-02-24T14:08:41.279Z,48.00
2018-02-24T14:11:08.792Z,47.90
2018-02-24T14:13:36.307Z,47.70
2018-02-24T14:16:03.998Z,47.10
2018-02-24T14:18:32.294Z,47.30
2018-02-24T14:20:59.788Z,47.30
2018-02-24T14:23:27.286Z,47.70
2018-02-24T14:25:54.790Z,48.60
2018-02-24T14:28:22.327Z,49.50
2018-02-24T14:30:49.853Z,48.30
2018-02-24T14:33:18.118Z,48.70
2018-02-24T14:35:46.395Z,48.50
2018-02-24T14:38:14.673Z,46.60
2018-02-24T14:40:42.961Z,45.40
2018-02-24T14:43:10.488Z,45.40
2018-02-24T14:45:38.104Z,44.50
2018-02-24T14:48:05.608Z,44.20
2018-02-24T14:50:33.166Z,44.70
2018-02-24T14:53:00.719Z,44.90
2018-02-24T14:55:28.216Z,45.60
2018-02-24T14:57:55.723Z,45.50
2018-02-24T15:00:23.224Z,44.30
2018-02-24T15:02:51.487Z,43.70
2018-02-24T15:05:19.977Z,44.80
2018-02-24T15:07:48.253Z,45.60
2018-02-24T15:10:16.527Z,45.70
2018-02-24T15:12:44.056Z,45.70
2018-02-24T15:15:11.587Z,46.60
2018-02-24T15:17:39.138Z,46.80
2018-02-24T15:20:06.649Z,47.00
2018-02-24T15:22:34.174Z,46.80
2018-02-24T15:25:01.669Z,47.30
2018-02-24T15:27:29.959Z,48.10
2018-02-24T15:29:58.276Z,47.30
2018-02-24T15:32:25.808Z,47.30
2018-02-24T15:34:53.348Z,47.40
2018-02-24T15:37:21.831Z,47.60
2018-02-24T15:39:49.388Z,47.60
2018-02-24T15:42:17.868Z,48.80
2018-02-24T15:44:45.430Z,48.80
2018-02-24T15:47:13.707Z,48.70
2018-02-24T15:49:41.266Z,48.70
2018-02-24T15:52:09.675Z,48.20
2018-02-24T15:54:37.188Z,48.20
2018-02-24T15:57:04.736Z,48.30
2018-02-24T15:59:33.033Z,47.80
2018-02-24T16:02:01.323Z,47.90
2018-02-24T16:04:28.955Z,47.90
2018-02-24T16:06:57.264Z,47.80
2018-02-24T16:09:24.824Z,47.80
2018-02-24T16:11:52.336Z,47.70
2018-02-24T16:14:19.974Z,47.00
2018-02-24T16:16:47.532Z,47.50
2018-02-24T16:19:15.060Z,47.30
2018-02-24T16:21:42.611Z,46.70
2018-02-24T16:24:10.121Z,47.00
2018-02-24T16:26:37.640Z,47.60
2018-02-24T16:29:05.180Z,47.90
2018-02-24T16:31:33.700Z,47.10
2018-02-24T16:34:01.297Z,47.10
2018-02-24T16:36:28.872Z,47.20
2018-02-24T16:38:57.203Z,47.80
2018-02-24T16:41:24.693Z,47.80
2018-02-24T16:43:53.079Z,48.20
2018-02-24T16:46:20.603Z,48.20
2018-02-24T16:48:48.890Z,48.10
2018-02-24T16:51:16.459Z,48.10
2018-02-24T16:53:44.069Z,48.20
2018-02-24T16:56:11.632Z,48.90
2018-02-24T16:58:39.192Z,49.40
2018-02-24T17:01:07.558Z,49.70
2018-02-24T17:03:35.107Z,49.70
2018-02-24T17:06:02.709Z,49.80
2018-02-24T17:08:30.308Z,49.70
2018-02-24T17:10:57.866Z,50.00
2018-02-24T17:13:26.209Z,50.70
2018-02-24T17:15:53.751Z,50.60
2018-02-24T17:18:22.745Z,51.80
2018-02-24T17:20:50.297Z,51.80
2018-02-24T17:23:17.820Z,52.10
2018-02-24T17:25:45.339Z,52.00
2018-02-24T17:28:12.849Z,51.80
2018-02-24T17:30:40.432Z,52.00
2018-02-24T17:33:08.694Z,51.90
2018-02-24T17:35:36.283Z,51.90
2018-02-24T17:38:03.892Z,51.50
2018-02-24T17:40:32.205Z,52.50
2018-02-24T17:42:59.769Z,52.50
2018-02-24T17:45:27.290Z,52.30
2018-02-24T17:47:55.591Z,52.20
2018-02-24T17:50:23.087Z,52.20
2018-02-24T17:52:50.616Z,52.10
2018-02-24T17:55:18.175Z,52.60
2018-02-24T17:57:45.688Z,52.70
2018-02-24T18:00:14.000Z,52.80
2018-02-24T18:02:41.574Z,52.80
2018-02-24T18:05:09.086Z,52.80
2018-02-24T18:07:37.412Z,52.80
2018-02-24T18:10:04.941Z,52.70
2018-02-24T18:12:32.448Z,53.00
2018-02-24T18:14:59.950Z,53.10
2018-02-24T18:17:27.459Z,53.40
2018-02-24T18:19:54.971Z,53.70
2018-02-24T18:22:22.493Z,54.00
2018-02-24T18:24:50.017Z,54.10
2018-02-24T18:27:18.315Z,54.40
2018-02-24T18:29:45.839Z,54.40
2018-02-24T18:32:13.363Z,54.60
2018-02-24T18:34:41.685Z,54.20
2018-02-24T18:37:09.231Z,54.20
2018-02-24T18:39:36.787Z,54.30
2018-02-24T18:42:04.324Z,54.10
2018-02-24T18:44:31.880Z,54.20
2018-02-24T18:46:59.409Z,54.10
2018-02-24T18:49:26.928Z,54.70
2018-02-24T18:51:54.435Z,54.40
2018-02-24T18:54:22.089Z,55.20
2018-02-24T18:56:49.631Z,55.00
2018-02-24T18:59:17.131Z,55.00
2018-02-24T19:01:45.461Z,55.10
2018-02-24T19:04:12.984Z,55.00
2018-02-24T19:06:40.570Z,55.30
2018-02-24T19:09:08.087Z,55.40
2018-02-24T19:11:35.592Z,55.70
2018-02-24T19:14:03.124Z,56.10
2018-02-24T19:16:30.624Z,56.20
2018-02-24T19:18:58.203Z,56.50
2018-02-24T19:21:26.477Z,56.60
2018-02-24T19:23:54.743Z,56.30
2018-02-24T19:26:22.961Z,56.30
2018-02-24T19:28:50.516Z,56.50
2018-02-24T19:31:18.107Z,56.50
2018-02-24T19:33:45.627Z,56.60
2018-02-24T19:36:13.157Z,56.40
2018-02-24T19:38:41.415Z,56.40
2018-02-24T19:41:08.910Z,56.30
2018-02-24T19:43:36.417Z,56.40
2018-02-24T19:46:03.899Z,56.70
2018-02-24T19:48:31.375Z,56.40
2018-02-24T19:50:59.639Z,56.70
2018-02-24T19:53:27.123Z,56.60
2018-02-24T19:55:54.611Z,56.60
2018-02-24T19:58:22.119Z,56.70
2018-02-24T20:00:50.373Z,57.50
2018-02-24T20:03:17.866Z,57.40
2018-02-24T20:05:45.367Z,57.50
2018-02-24T20:08:13.620Z,57.50
2018-02-24T20:10:41.147Z,57.50
2018-02-24T20:13:08.635Z,57.60
2018-02-24T20:15:36.117Z,57.50
2018-02-24T20:18:03.607Z,57.60
2018-02-24T20:20:31.117Z,57.60
2018-02-24T20:22:58.611Z,57.80
2018-02-24T20:25:26.120Z,58.00
2018-02-24T20:27:53.608Z,58.20
2018-02-24T20:30:21.097Z,58.30
2018-02-24T20:32:48.595Z,58.50
2018-02-24T20:35:16.075Z,58.90
2018-02-24T20:37:43.588Z,58.40
2018-02-24T20:40:11.855Z,58.60
2018-02-24T20:42:40.099Z,59.20
2018-02-24T20:45:07.584Z,59.20
2018-02-24T20:47:35.856Z,59.20
2018-02-24T20:50:03.342Z,59.20
2018-02-24T20:52:31.592Z,59.60
2018-02-24T20:54:59.864Z,59.50
2018-02-24T20:57:27.353Z,60.00
2018-02-24T20:59:54.846Z,59.60
2018-02-24T21:02:22.623Z,59.80
2018-02-24T21:04:50.119Z,60.40
2018-02-24T21:07:18.478Z,60.30
2018-02-24T21:09:45.975Z,60.20
2018-02-24T21:12:13.477Z,60.30
2018-02-24T21:14:41.082Z,60.50
2018-02-24T21:17:08.648Z,60.40
2018-02-24T21:19:36.140Z,60.60
2018-02-24T21:22:03.645Z,60.70
2018-02-24T21:24:31.168Z,60.90
2018-02-24T21:26:59.437Z,61.20
2018-02-24T21:29:26.931Z,61.60
2018-02-24T21:31:55.227Z,61.10
2018-02-24T21:34:22.736Z,61.10
2018-02-24T21:36:50.223Z,61.80
2018-02-24T21:39:18.476Z,61.60
2018-02-24T21:41:45.999Z,61.60
2018-02-24T21:44:13.491Z,62.10
2018-02-24T21:46:40.977Z,62.10
2018-02-24T21:49:09.252Z,62.70
2018-02-24T21:51:37.522Z,63.10
2018-02-24T21:54:05.792Z,62.90
2018-02-24T21:56:33.430Z,62.70
2018-02-24T21:59:01.841Z,63.00
2018-02-24T22:01:29.387Z,62.90
2018-02-24T22:03:56.884Z,63.10
2018-02-24T22:06:25.143Z,63.80
2018-02-24T22:08:53.400Z,63.90
2018-02-24T22:11:20.896Z,63.90
2018-02-24T22:13:48.414Z,63.70
2018-02-24T22:16:15.895Z,64.10
2018-02-24T22:18:43.393Z,63.90
2018-02-24T22:21:10.928Z,63.90
2018-02-24T22:23:38.420Z,64.20
2018-02-24T22:26:05.964Z,64.20
2018-02-24T22:28:33.426Z,64.20
2018-02-24T22:31:00.914Z,64.30
2018-02-24T22:33:28.439Z,64.40
2018-02-24T22:35:56.090Z,64.60
2018-02-24T22:38:23.591Z,64.30
2018-02-24T22:40:51.092Z,64.20
2018-02-24T22:43:18.597Z,64.30
2018-02-24T22:45:46.103Z,64.30
2018-02-24T22:48:19.340Z,64.70
2018-02-24T22:50:47.765Z,64.90
2018-02-24T22:53:15.395Z,64.90
2018-02-24T22:55:42.907Z,65.30
2018-02-24T22:58:10.395Z,64.40
2018-02-24T23:00:37.980Z,64.30
2018-02-24T23:03:05.491Z,64.50
2018-02-24T23:05:33.084Z,65.10
2018-02-24T23:08:00.655Z,64.50
2018-02-24T23:10:28.152Z,64.40
2018-02-24T23:12:55.648Z,64.30
2018-02-24T23:15:23.899Z,64.60
2018-02-24T23:17:51.499Z,64.60
2018-02-24T23:20:19.791Z,64.50
2018-02-24T23:22:48.057Z,65.20
2018-02-24T23:25:15.565Z,64.60
2018-02-24T23:27:43.147Z,64.70
2018-02-24T23:30:10.651Z,65.30
2018-02-24T23:32:39.057Z,65.90
2018-02-24T23:35:06.570Z,65.80
2018-02-24T23:37:34.171Z,66.10
2018-02-24T23:40:02.443Z,66.20
2018-02-24T23:42:29.932Z,66.20
2018-02-24T23:44:57.514Z,66.20
2018-02-24T23:47:25.915Z,66.20
2018-02-24T23:49:54.176Z,66.60
2018-02-24T23:52:21.700Z,66.50
2018-02-24T23:54:49.219Z,66.80
2018-02-24T23:57:17.476Z,67.00
2018-02-24T23:59:44.995Z,67.00
